Time;durP1;ratioP1;P1;durP2;ratioP2;P2;SDS_P1;SDS_P2;PMS_P1;PMS_P2;Temp;Humidity;BMP_temperature;BMP_pressure;BME280_temperature;BME280_humidity;BME280_pressure;Samples;Min_cycle;Max_cycle;Signal;HPM_P1;HPM_P2
2023/07/06 00:02:09;;;;;;;5.05;4.95;;;;;;;-141.02;100.00;107971.50;5112807;28;20293;-67
2023/07/06 00:05:22;;;;;;;4.75;4.65;;;;;;;-141.02;100.00;107971.50;5114377;28;20289;-57
2023/07/06 00:07:56;;;;;;;4.60;4.50;;;;;;;-141.02;100.00;107971.50;5114339;28;20193;-67
2023/07/06 00:11:10;;;;;;;4.80;4.70;;;;;;;-141.02;100.00;107971.50;5114607;28;20223;-65
2023/07/06 00:14:33;;;;;;;5.10;5.00;;;;;;;-141.02;100.00;107971.50;5114200;28;20736;-69
2023/07/06 00:17:57;;;;;;;5.50;5.40;;;;;;;-141.02;100.00;107971.50;5114129;28;20197;-69
2023/07/06 00:21:09;;;;;;;5.80;5.70;;;;;;;-141.02;100.00;107971.50;5114069;28;20220;-68
2023/07/06 00:23:57;;;;;;;5.50;5.40;;;;;;;-141.02;100.00;107971.50;5113369;28;20189;-68
2023/07/06 00:27:16;;;;;;;5.47;5.38;;;;;;;-141.02;100.00;107971.50;5114011;28;20201;-68
2023/07/06 00:30:41;;;;;;;5.38;5.28;;;;;;;-141.02;100.00;107971.50;5114251;28;20635;-66
2023/07/06 00:36:30;;;;;;;4.50;4.40;;;;;;;-141.02;100.00;107971.50;5113772;28;20219;-64
2023/07/06 00:39:43;;;;;;;4.60;4.50;;;;;;;-141.02;100.00;107971.50;5113601;27;20583;-67
2023/07/06 00:48:55;;;;;;;4.90;4.80;;;;;;;-141.02;100.00;107971.50;5114025;28;20234;-66
2023/07/06 00:52:00;;;;;;;4.88;4.78;;;;;;;-141.02;100.00;107971.50;5113563;28;20276;-68
2023/07/06 00:57:51;;;;;;;5.22;5.13;;;;;;;-141.02;100.00;107971.50;5071214;28;20592;-69
2023/07/06 01:00:28;;;;;;;5.35;5.25;;;;;;;-141.02;100.00;107971.50;5061812;28;20373;-69
2023/07/06 01:03:46;;;;;;;4.85;4.75;;;;;;;-141.02;100.00;107971.50;5070651;28;20244;-67
2023/07/06 01:07:04;;;;;;;4.50;4.40;;;;;;;-141.02;100.00;107971.50;5070539;28;20191;-69
2023/07/06 01:20:26;;;;;;;4.30;4.20;;;;;;;-141.02;100.00;107971.50;5070466;28;20335;-68
2023/07/06 01:30:08;;;;;;;3.80;3.70;;;;;;;-141.02;100.00;107971.50;5112880;28;20191;-65
2023/07/06 01:33:17;;;;;;;3.80;3.70;;;;;;;-141.02;100.00;107971.50;4971677;28;20197;-61
2023/07/06 01:36:37;;;;;;;3.40;3.40;;;;;;;-141.02;100.00;107971.50;4971750;28;20226;-66
2023/07/06 01:39:48;;;;;;;3.55;3.45;;;;;;;-141.02;100.00;107971.50;4971375;28;20229;-64
2023/07/06 01:42:30;;;;;;;3.63;3.53;;;;;;;-141.02;100.00;107971.50;4971381;28;20201;-65
2023/07/06 01:45:02;;;;;;;3.60;3.50;;;;;;;-141.02;100.00;107971.50;4971587;28;20205;-69
2023/07/06 01:54:58;;;;;;;3.60;3.50;;;;;;;-141.02;100.00;107971.50;4971231;28;20663;-68
2023/07/06 02:04:43;;;;;;;3.30;3.30;;;;;;;-141.02;100.00;107971.50;4932811;29;20213;-63
2023/07/06 02:10:31;;;;;;;3.30;3.30;;;;;;;-141.02;100.00;107971.50;5044346;28;20271;-68
2023/07/06 02:17:11;;;;;;;3.20;3.20;;;;;;;-141.02;100.00;107971.50;5069824;28;20189;-67
2023/07/06 02:36:23;;;;;;;3.38;3.33;;;;;;;-141.02;100.00;107971.50;5034246;28;20581;-65
2023/07/06 02:42:14;;;;;;;2.90;2.90;;;;;;;-141.02;100.00;107971.50;5075446;28;20194;-67
2023/07/06 02:44:43;;;;;;;2.80;2.80;;;;;;;-141.02;100.00;107971.50;5075418;28;20671;-67
2023/07/06 02:51:17;;;;;;;2.90;2.90;;;;;;;-141.02;100.00;107971.50;5075402;28;20587;-60
2023/07/06 02:54:15;;;;;;;2.95;2.95;;;;;;;-141.02;100.00;107971.50;5075486;28;20700;-68
2023/07/06 02:57:20;;;;;;;2.80;2.80;;;;;;;-141.02;100.00;107971.50;5074502;28;20205;-65
2023/07/06 03:09:53;;;;;;;3.60;3.50;;;;;;;-141.02;100.00;107971.50;5115662;28;20212;-68
2023/07/06 03:13:12;;;;;;;3.70;3.60;;;;;;;-141.02;100.00;107971.50;5115853;28;20272;-63
2023/07/06 03:19:08;;;;;;;4.60;4.50;;;;;;;-141.02;100.00;107971.50;5115659;28;20244;-64
2023/07/06 03:21:37;;;;;;;4.70;4.60;;;;;;;-141.02;100.00;107971.50;5115891;28;20180;-65
2023/07/06 03:24:53;;;;;;;4.90;4.80;;;;;;;-141.02;100.00;107971.50;5116449;28;20205;-62
2023/07/06 03:34:07;;;;;;;7.10;6.90;;;;;;;-141.02;100.00;107971.50;5114252;28;20635;-58
2023/07/06 03:36:34;;;;;;;7.85;7.65;;;;;;;-141.02;100.00;107971.50;5115123;28;20288;-68
2023/07/06 03:39:01;;;;;;;9.23;8.93;;;;;;;-141.02;100.00;107971.50;5115201;28;20194;-58
2023/07/06 03:41:28;;;;;;;9.90;9.60;;;;;;;-141.02;100.00;107971.50;5115025;28;20189;-66
2023/07/06 03:43:58;;;;;;;9.80;9.50;;;;;;;-141.02;100.00;107971.50;5115024;28;20650;-68
2023/07/06 03:47:03;;;;;;;10.30;10.00;;;;;;;-141.02;100.00;107971.50;5114857;27;20681;-66
2023/07/06 03:49:34;;;;;;;9.98;9.68;;;;;;;-141.02;100.00;107971.50;5114835;28;20192;-68
2023/07/06 03:52:02;;;;;;;10.10;9.80;;;;;;;-141.02;100.00;107971.50;5114837;28;20227;-62
2023/07/06 03:54:29;;;;;;;10.00;9.70;;;;;;;-141.02;100.00;107971.50;5115021;28;20374;-67
2023/07/06 03:56:57;;;;;;;10.10;9.80;;;;;;;-141.02;100.00;107971.50;5114970;28;20231;-69
2023/07/06 03:59:24;;;;;;;10.18;9.88;;;;;;;-141.02;100.00;107971.50;5114521;28;20281;-67
2023/07/06 04:01:51;;;;;;;9.60;9.30;;;;;;;-141.02;100.00;107971.50;5114563;28;20583;-60
2023/07/06 04:04:26;;;;;;;9.30;9.00;;;;;;;-141.02;100.00;107971.50;5114535;28;20233;-58
2023/07/06 04:06:55;;;;;;;9.27;8.98;;;;;;;-141.02;100.00;107971.50;5114520;28;20195;-69
2023/07/06 04:09:24;;;;;;;9.20;8.90;;;;;;;-141.02;100.00;107971.50;5114447;28;20734;-65
2023/07/06 04:11:52;;;;;;;10.20;9.90;;;;;;;-141.02;100.00;107971.50;5114396;28;20242;-70
2023/07/06 04:14:21;;;;;;;9.45;9.15;;;;;;;-141.02;100.00;107971.50;5114705;28;20189;-68
2023/07/06 04:16:48;;;;;;;10.80;10.50;;;;;;;-141.02;100.00;107971.50;5114201;28;20687;-69
2023/07/06 04:19:15;;;;;;;10.30;10.00;;;;;;;-141.02;100.00;107971.50;5114474;28;20197;-68
2023/07/06 04:21:42;;;;;;;10.30;10.00;;;;;;;-141.02;100.00;107971.50;5114138;28;20555;-67
2023/07/06 04:24:10;;;;;;;10.27;9.98;;;;;;;-141.02;100.00;107971.50;5114185;28;20236;-67
2023/07/06 04:26:37;;;;;;;9.80;9.50;;;;;;;-141.02;100.00;107971.50;5114114;28;20223;-70
2023/07/06 04:29:09;;;;;;;10.60;10.30;;;;;;;-141.02;100.00;107971.50;5113944;28;20231;-61
2023/07/06 04:31:36;;;;;;;11.00;10.70;;;;;;;-141.02;100.00;107971.50;5114381;28;20193;-69
2023/07/06 04:34:04;;;;;;;10.75;10.45;;;;;;;-141.02;100.00;107971.50;5113914;28;20220;-70
2023/07/06 04:36:32;;;;;;;10.25;9.95;;;;;;;-141.02;100.00;107971.50;5114308;28;20197;-69
2023/07/06 04:38:59;;;;;;;9.98;9.68;;;;;;;-141.02;100.00;107971.50;5114073;28;20193;-61
2023/07/06 04:41:28;;;;;;;9.70;9.40;;;;;;;-141.02;100.00;107971.50;5113749;28;20818;-69
2023/07/06 04:43:56;;;;;;;9.38;9.07;;;;;;;-141.02;100.00;107971.50;5113818;28;20285;-67
2023/07/06 04:46:23;;;;;;;9.43;9.13;;;;;;;-141.02;100.00;107971.50;5114720;28;20197;-67
2023/07/06 04:48:50;;;;;;;8.77;8.57;;;;;;;-141.02;100.00;107971.50;5113939;28;20292;-60
2023/07/06 04:51:18;;;;;;;9.48;9.18;;;;;;;-141.02;100.00;107971.50;5113595;28;20253;-69
2023/07/06 04:53:45;;;;;;;9.70;9.40;;;;;;;-141.02;100.00;107971.50;5113852;28;20201;-69
2023/07/06 04:56:12;;;;;;;10.23;9.93;;;;;;;-141.02;100.00;107971.50;5113829;28;20310;-66
2023/07/06 04:58:41;;;;;;;11.32;11.00;;;;;;;-141.02;100.00;107971.50;5113469;28;20275;-67
2023/07/06 05:01:08;;;;;;;11.98;11.57;;;;;;;-141.02;100.00;107971.50;5113225;28;20224;-65
2023/07/06 05:03:36;;;;;;;13.75;13.25;;;;;;;-141.02;100.00;107971.50;5113751;28;20209;-67
2023/07/06 05:06:07;;;;;;;13.60;13.10;;;;;;;-141.02;100.00;107971.50;5113376;28;20193;-70
2023/07/06 05:21:15;;;;;;;18.15;16.95;;;;;;;-141.02;100.00;107468.69;5151668;27;20540;-68
2023/07/06 05:23:43;;;;;;;17.70;16.60;;;;;;;-141.02;100.00;106717.56;5150990;27;20683;-60
2023/07/06 05:26:11;;;;;;;16.38;15.38;;;;;;;-141.02;100.00;106717.56;5151238;27;20215;-64
2023/07/06 05:28:38;;;;;;;16.05;15.05;;;;;;;-141.02;100.00;106967.91;5151174;27;20196;-66
2023/07/06 05:31:05;;;;;;;16.63;15.52;;;;;;;-141.02;100.00;106717.56;5150831;27;20283;-69
2023/07/06 05:33:32;;;;;;;16.45;15.38;;;;;;;-141.02;100.00;106467.22;5150793;27;20198;-62
2023/07/06 05:35:59;;;;;;;17.00;15.80;;;;;;;-141.02;100.00;105966.59;5151062;27;20191;-73
2023/07/06 05:38:28;;;;;;;16.70;15.60;;;;;;;-141.02;100.00;105716.31;5150993;27;20242;-71
2023/07/06 05:40:55;;;;;;;16.52;15.43;;;;;;;-141.02;100.00;105466.03;5150573;27;20188;-65
2023/07/06 05:43:23;;;;;;;16.23;15.15;;;;;;;-141.02;100.00;105716.31;5150921;27;20196;-73
2023/07/06 05:45:50;;;;;;;15.98;14.98;;;;;;;-141.02;100.00;105966.59;5150520;27;20287;-68
2023/07/06 05:48:18;;;;;;;15.20;14.30;;;;;;;-141.02;100.00;106216.91;5150805;27;20192;-72
2023/07/06 05:50:45;;;;;;;15.45;14.55;;;;;;;-141.02;100.00;106216.91;5150401;27;20227;-74
2023/07/06 05:53:13;;;;;;;15.60;14.70;;;;;;;-141.02;100.00;105966.59;5150455;27;20602;-69
2023/07/06 05:55:43;;;;;;;15.95;14.85;;;;;;;-141.02;100.00;105716.31;5150326;27;20188;-72
2023/07/06 05:58:11;;;;;;;17.05;15.85;;;;;;;-141.02;100.00;104715.34;5150520;27;20669;-69
2023/07/06 06:00:41;;;;;;;16.27;15.18;;;;;;;-141.02;100.00;105215.78;5150580;27;20192;-68
2023/07/06 06:03:08;;;;;;;16.33;15.30;;;;;;;-141.02;100.00;105215.78;5150268;27;20200;-69
2023/07/06 06:05:35;;;;;;;17.40;16.20;;;;;;;-141.02;100.00;104715.34;5150134;27;20224;-67
2023/07/06 06:08:02;;;;;;;17.30;16.10;;;;;;;-141.02;100.00;105215.78;5150369;27;20249;-73
2023/07/06 06:10:31;;;;;;;16.80;15.60;;;;;;;-141.02;100.00;104715.34;5149953;27;20223;-73
2023/07/06 06:12:59;;;;;;;16.70;15.50;;;;;;;-141.02;100.00;104965.56;5149979;27;20199;-70
2023/07/06 06:15:27;;;;;;;16.73;15.60;;;;;;;-141.02;100.00;104465.16;5149965;27;20207;-72
2023/07/06 06:17:54;;;;;;;17.70;16.40;;;;;;;-141.02;100.00;104715.34;5150156;27;20227;-56
2023/07/06 06:20:21;;;;;;;16.80;15.60;;;;;;;-141.02;100.00;104214.97;5146345;27;20675;-67
2023/07/06 06:22:48;;;;;;;16.55;15.35;;;;;;;-141.02;100.00;103964.81;5135945;27;20198;-75
2023/07/06 06:25:15;;;;;;;16.00;14.90;;;;;;;-141.02;100.00;104715.34;5136339;27;20245;-71
2023/07/06 06:27:43;;;;;;;16.50;15.50;;;;;;;-141.02;100.00;104965.56;5135846;27;20674;-74
2023/07/06 06:30:12;;;;;;;16.20;15.10;;;;;;;-141.02;100.00;104465.16;5135753;27;20731;-77
2023/07/06 06:32:39;;;;;;;16.02;15.02;;;;;;;-141.02;100.00;104465.16;5136159;27;20275;-72
2023/07/06 06:35:21;;;;;;;15.85;14.85;;;;;;;-141.02;100.00;104465.16;5136080;27;20204;-75
2023/07/06 06:37:47;;;;;;;16.52;15.35;;;;;;;-141.02;100.00;103964.81;5136073;27;20188;-69
2023/07/06 06:40:15;;;;;;;16.58;15.40;;;;;;;-141.02;100.00;103714.66;5135966;27;20275;-60
2023/07/06 06:42:42;;;;;;;15.90;14.82;;;;;;;-141.02;100.00;104214.97;5135872;27;20193;-71
2023/07/06 06:45:11;;;;;;;15.73;14.82;;;;;;;-141.02;100.00;104465.16;5135820;27;20629;-72
2023/07/06 06:47:38;;;;;;;16.48;15.38;;;;;;;-141.02;100.00;103464.53;5135813;27;20279;-74
2023/07/06 06:50:08;;;;;;;16.02;14.93;;;;;;;-141.02;100.00;103964.81;5135386;27;20220;-69
2023/07/06 06:52:35;;;;;;;16.80;15.60;;;;;;;-141.02;100.00;102714.25;5135394;27;20649;-72
2023/07/06 06:55:02;;;;;;;16.17;15.07;;;;;;;-141.02;100.00;103214.44;5135426;27;20249;-66
2023/07/06 06:57:30;;;;;;;16.98;15.77;;;;;;;-141.02;100.00;102464.22;5135671;27;20275;-72
2023/07/06 06:59:57;;;;;;;17.33;16.02;;;;;;;-141.02;100.00;102464.22;5135524;27;20197;-74
2023/07/06 07:02:26;;;;;;;16.80;15.60;;;;;;;-141.02;100.00;103464.53;5135499;27;20196;-60
2023/07/06 07:04:58;;;;;;;17.23;15.93;;;;;;;-141.02;100.00;102464.22;5135523;27;20212;-64
2023/07/06 07:07:25;;;;;;;17.85;16.38;;;;;;;-141.02;100.00;102214.16;5135188;27;20195;-63
2023/07/06 07:09:52;;;;;;;18.02;16.52;;;;;;;-141.02;100.00;102214.16;5135275;27;20610;-64
2023/07/06 07:12:19;;;;;;;17.98;16.48;;;;;;;-141.02;100.00;101714.16;5135422;27;20221;-69
2023/07/06 07:14:48;;;;;;;18.58;17.08;;;;;;;-141.02;100.00;101714.16;5135330;27;20275;-71
2023/07/06 07:17:15;;;;;;;18.38;16.88;;;;;;;-141.02;100.00;101714.16;5135290;27;20257;-63
2023/07/06 07:19:43;;;;;;;18.10;16.60;;;;;;;-141.02;99.51;101214.22;5134823;27;20232;-68
2023/07/06 07:22:10;;;;;;;18.25;16.75;;;;;;;-141.02;98.41;100714.34;5135103;27;20198;-55
2023/07/06 07:24:37;;;;;;;18.90;17.40;;;;;;;-141.02;100.00;101214.22;5135102;27;20196;-65
2023/07/06 07:27:05;;;;;;;19.10;17.60;;;;;;;-141.02;100.00;100964.25;5135002;27;20203;-56
2023/07/06 07:29:32;;;;;;;18.20;16.80;;;;;;;-141.02;100.00;101464.19;5134938;27;20307;-57
2023/07/06 07:32:02;;;;;;;18.92;17.35;;;;;;;-141.02;98.12;100714.34;5134197;27;20223;-68
2023/07/06 07:34:29;;;;;;;19.10;17.50;;;;;;;-141.02;96.67;99964.66;5134378;27;20279;-70
2023/07/06 07:36:58;;;;;;;18.30;16.90;;;;;;;-141.02;99.63;100464.44;5134510;27;20291;-72
2023/07/06 07:39:25;;;;;;;17.70;16.40;;;;;;;-141.02;100.00;101214.22;5134770;27;20226;-72
2023/07/06 07:41:52;;;;;;;18.92;17.33;;;;;;;-141.02;97.29;100964.25;5134791;27;20224;-62
2023/07/06 07:44:19;;;;;;;19.42;17.73;;;;;;;-141.02;89.32;98965.34;5134368;27;20196;-58
2023/07/06 07:46:46;;;;;;;20.10;18.30;;;;;;;-141.02;91.85;99215.16;5134319;27;20669;-69
2023/07/06 07:49:13;;;;;;;20.27;18.48;;;;;;;-141.02;94.61;99464.97;5134229;27;20712;-56
2023/07/06 07:51:41;;;;;;;20.90;19.00;;;;;;;-141.02;91.91;99464.97;5134580;27;20200;-55
2023/07/06 07:54:09;;;;;;;20.98;19.17;;;;;;;-141.02;87.65;99215.16;5134186;27;20230;-63
2023/07/06 07:56:36;;;;;;;21.10;19.20;;;;;;;-141.02;88.02;99215.16;5134123;27;20189;-56
2023/07/06 07:59:03;;;;;;;21.65;19.65;;;;;;;-141.02;87.18;98216.03;5134459;27;20275;-56
2023/07/06 08:01:32;;;;;;;21.48;19.48;;;;;;;-141.02;86.73;98216.03;5134307;27;20292;-59
2023/07/06 08:03:59;;;;;;;22.13;20.13;;;;;;;-141.02;87.50;98465.78;5133956;27;20232;-55
2023/07/06 08:06:26;;;;;;;22.23;20.13;;;;;;;-141.02;89.67;96717.94;5133974;27;20199;-55
2023/07/06 08:08:53;;;;;;;21.20;19.30;;;;;;;-141.02;89.79;96967.56;5134230;27;20287;-55
2023/07/06 08:11:24;;;;;;;21.33;19.38;;;;;;;-141.02;88.50;96218.69;5134077;27;20297;-70
2023/07/06 08:13:53;;;;;;;22.35;20.35;;;;;;;-141.02;86.90;97716.59;5133802;27;20191;-65
2023/07/06 08:16:21;;;;;;;22.90;20.80;;;;;;;-141.02;83.64;97716.59;5134084;27;20287;-59
2023/07/06 08:18:49;;;;;;;22.60;20.50;;;;;;;-141.02;80.61;97466.91;5133514;27;20275;-64
2023/07/06 08:21:16;;;;;;;24.52;22.33;;;;;;;-141.02;77.35;96218.69;5134135;27;20227;-55
2023/07/06 08:23:50;;;;;;;22.80;20.70;;;;;;;-141.02;83.50;95719.53;5133962;27;20199;-55
2023/07/06 08:26:18;;;;;;;22.48;20.48;;;;;;;-141.02;79.70;95969.13;5133969;27;20272;-57
2023/07/06 08:28:47;;;;;;;21.58;19.67;;;;;;;-141.02;85.15;97466.91;5133802;27;20192;-59
2023/07/06 08:31:19;;;;;;;22.65;20.55;;;;;;;-141.02;77.58;95470.00;5133952;27;20232;-70
2023/07/06 08:33:47;;;;;;;22.70;20.60;;;;;;;-141.02;81.27;96967.56;5133794;27;20189;-58
2023/07/06 08:36:16;;;;;;;22.58;20.58;;;;;;;-141.02;80.60;97466.91;5133701;27;20196;-70
2023/07/06 08:38:43;;;;;;;23.35;21.25;;;;;;;-141.02;76.67;94721.44;5133679;27;20219;-62
2023/07/06 08:41:16;;;;;;;21.60;19.60;;;;;;;-141.02;76.39;94222.50;5133216;27;20232;-56
2023/07/06 08:43:46;;;;;;;21.80;19.80;;;;;;;-141.02;78.18;93224.84;5133092;27;20666;-59
2023/07/06 08:46:14;;;;;;;21.88;19.88;;;;;;;-141.02;80.32;93973.06;5133543;27;20200;-64
2023/07/06 08:48:42;;;;;;;22.55;20.45;;;;;;;-141.02;77.88;93474.22;5133274;27;20196;-59
2023/07/06 08:51:17;;;;;;;21.73;19.73;;;;;;;-141.02;77.47;94721.44;5133071;27;20224;-55
2023/07/06 08:53:51;;;;;;;22.38;20.38;;;;;;;-141.02;79.99;96218.69;5133512;27;20222;-56
2023/07/06 08:56:21;;;;;;;26.25;23.90;;;;;;;-141.02;72.36;94970.94;5133125;27;20187;-56
2023/07/06 08:58:49;;;;;;;22.80;20.60;;;;;;;-141.02;73.19;95719.53;5133121;27;20567;-65
2023/07/06 09:01:22;;;;;;;22.92;20.73;;;;;;;-141.02;72.84;95470.00;5133050;27;20192;-55
2023/07/06 09:03:51;;;;;;;23.02;20.83;;;;;;;-141.02;72.64;92476.78;5133438;27;20241;-55
2023/07/06 09:06:21;;;;;;;22.35;20.25;;;;;;;-141.02;73.85;93973.06;5133038;27;20188;-57
2023/07/06 09:08:49;;;;;;;23.98;21.77;;;;;;;-141.02;75.84;91728.88;5133257;28;20189;-60
2023/07/06 09:11:17;;;;;;;23.52;21.40;;;;;;;-141.02;77.34;90981.13;5133115;28;20235;-57
2023/07/06 09:13:46;;;;;;;22.95;20.85;;;;;;;-141.02;76.86;92227.47;5132871;28;20287;-61
2023/07/06 09:16:18;;;;;;;23.58;21.38;;;;;;;-141.02;72.51;92227.47;5133205;28;20246;-68
2023/07/06 09:18:47;;;;;;;23.60;21.40;;;;;;;-141.02;72.92;92726.13;5132908;28;20701;-56
2023/07/06 09:21:16;;;;;;;22.75;20.65;;;;;;;-141.02;75.26;94222.50;5132833;28;20650;-57
2023/07/06 09:23:47;;;;;;;23.48;21.38;;;;;;;-141.02;69.05;93723.63;5132794;28;20569;-57
2023/07/06 09:26:21;;;;;;;25.05;22.75;;;;;;;-141.02;66.61;93224.84;5132952;27;20184;-61
2023/07/06 09:28:48;;;;;;;23.95;21.75;;;;;;;-141.02;68.54;92975.47;5132875;28;20237;-68
2023/07/06 09:31:18;;;;;;;23.65;21.45;;;;;;;-141.02;64.50;92227.47;5132654;28;20713;-65
2023/07/06 09:33:49;;;;;;;24.50;22.20;;;;;;;-141.02;64.39;91728.88;5132801;28;20204;-68
2023/07/06 09:36:19;;;;;;;24.77;22.48;;;;;;;-141.02;63.17;90981.13;5133031;28;20180;-59
2023/07/06 09:38:47;;;;;;;23.30;21.20;;;;;;;-141.02;65.39;91479.63;5132712;28;20185;-55
2023/07/06 09:41:22;;;;;;;24.90;22.60;;;;;;;-141.02;66.21;89486.16;5132543;28;20199;-61
2023/07/06 09:43:53;;;;;;;25.35;23.05;;;;;;;-141.02;66.54;87991.81;5132986;27;20192;-60
2023/07/06 09:46:23;;;;;;;24.52;22.33;;;;;;;-141.02;72.60;88240.81;5132637;28;20713;-55
2023/07/06 09:48:52;;;;;;;23.58;21.48;;;;;;;-141.02;73.61;86498.09;5132944;28;20271;-57
2023/07/06 09:51:26;;;;;;;23.98;21.77;;;;;;;-141.02;75.64;85751.50;5132416;28;20224;-55
2023/07/06 09:54:00;;;;;;;24.60;22.40;;;;;;;-141.02;74.48;86995.94;5132921;28;20189;-56
2023/07/06 09:56:29;;;;;;;23.40;21.30;;;;;;;-141.02;74.97;87742.81;5134713;27;20219;-56
2023/07/06 09:58:56;;;;;;;23.70;21.58;;;;;;;-141.02;71.23;86747.00;5136355;27;20203;-55
2023/07/06 10:01:40;;;;;;;23.80;21.70;;;;;;;-141.02;75.25;86000.34;5136361;27;20280;-57
2023/07/06 10:04:45;;;;;;;22.40;20.40;;;;;;;-141.02;78.08;85253.84;5136783;27;20249;-55
2023/07/06 10:07:18;;;;;;;21.98;19.98;;;;;;;-141.02;80.64;86249.22;5131603;27;20203;-57
2023/07/06 10:09:52;;;;;;;21.98;19.98;;;;;;;-141.02;80.80;86000.34;5136523;27;20588;-55
2023/07/06 10:12:27;;;;;;;21.35;19.45;;;;;;;-141.02;79.98;85253.84;5136490;27;20224;-55
2023/07/06 10:14:55;;;;;;;21.42;19.52;;;;;;;-141.02;84.01;85253.84;5136393;27;20199;-55
2023/07/06 10:17:45;;;;;;;21.45;19.55;;;;;;;-141.02;84.88;85253.84;5136090;27;20203;-55
2023/07/06 10:20:19;;;;;;;22.00;20.10;;;;;;;-141.02;82.79;85005.03;5131095;27;20311;-55
2023/07/06 10:23:04;;;;;;;22.85;20.85;;;;;;;-141.02;84.23;84756.25;5136737;27;20279;-56
2023/07/06 10:25:35;;;;;;;20.90;19.10;;;;;;;-141.02;83.45;84010.03;5136301;27;20263;-64
2023/07/06 10:28:12;;;;;;;21.00;19.10;;;;;;;-141.02;86.58;85005.03;5136194;27;20197;-56
2023/07/06 10:30:45;;;;;;;20.95;19.15;;;;;;;-141.02;86.83;84258.75;5135797;27;20634;-59
2023/07/06 10:33:18;;;;;;;20.85;18.95;;;;;;;-141.02;86.57;84507.50;5136082;27;20184;-57
2023/07/06 10:35:50;;;;;;;20.80;19.00;;;;;;;-141.02;88.20;84756.25;5135750;27;20677;-63
2023/07/06 10:38:18;;;;;;;20.73;18.83;;;;;;;-141.02;88.19;84756.25;5135646;27;20191;-64
2023/07/06 10:40:51;;;;;;;20.67;18.88;;;;;;;-141.02;87.65;85502.66;5135913;27;20200;-55
2023/07/06 10:43:23;;;;;;;21.40;19.50;;;;;;;-141.02;86.99;84756.25;5135871;27;20220;-55
2023/07/06 10:45:52;;;;;;;20.05;18.35;;;;;;;-141.02;89.12;86249.22;5135558;27;20201;-62
2023/07/06 10:48:31;;;;;;;20.42;18.63;;;;;;;-141.02;87.10;85502.66;5135757;27;20199;-66
2023/07/06 10:51:22;;;;;;;19.67;17.98;;;;;;;-141.02;96.29;87493.84;5135752;27;20589;-64
2023/07/06 10:53:55;;;;;;;18.55;17.20;;;;;;;-141.02;100.00;88738.88;5135456;27;20196;-69
2023/07/06 10:56:24;;;;;;;20.60;19.50;;;;;;;-141.02;100.00;89735.28;5135611;27;20188;-66
2023/07/06 10:58:58;;;;;;;16.08;15.38;;;;;;;-141.02;100.00;94471.97;5135612;27;20227;-64
2023/07/06 11:01:30;;;;;;;24.25;23.15;;;;;;;-141.02;100.00;95969.13;5135583;27;20231;-67
2023/07/06 11:04:00;;;;;;;27.55;26.17;;;;;;;-141.02;100.00;96468.31;5135556;27;20192;-62
2023/07/06 11:06:54;;;;;;;23.80;22.70;;;;;;;-141.02;100.00;100214.53;5135017;27;20189;-64
2023/07/06 11:09:21;;;;;;;30.10;28.50;;;;;;;-141.02;100.00;103214.44;5135404;27;20658;-63
2023/07/06 11:12:18;;;;;;;30.75;29.15;;;;;;;-141.02;100.00;104214.97;5134885;27;20772;-62
2023/07/06 11:14:48;;;;;;;31.10;29.42;;;;;;;-141.02;100.00;103214.44;5134973;27;20192;-67
2023/07/06 11:17:33;;;;;;;32.55;30.85;;;;;;;-141.02;100.00;101964.16;5135009;27;20650;-59
2023/07/06 11:20:07;;;;;;;34.70;32.80;;;;;;;-141.02;100.00;100964.25;5134658;27;20228;-61
2023/07/06 11:22:37;;;;;;;32.17;30.27;;;;;;;-141.02;100.00;102464.22;5135158;27;20188;-58
2023/07/06 11:25:05;;;;;;;28.05;26.45;;;;;;;-141.02;100.00;105215.78;5134791;27;20185;-56
2023/07/06 11:27:35;;;;;;;29.98;28.27;;;;;;;-141.02;100.00;106717.56;5135007;27;20279;-58
2023/07/06 11:30:13;;;;;;;32.75;30.85;;;;;;;-141.02;100.00;106967.91;5134693;27;20216;-65
2023/07/06 11:32:55;;;;;;;31.77;29.98;;;;;;;-141.02;100.00;107218.31;5135010;27;20180;-66
2023/07/06 11:35:35;;;;;;;30.77;29.08;;;;;;;-141.02;100.00;107719.09;5134957;27;20208;-62
2023/07/06 11:38:19;;;;;;;32.58;30.77;;;;;;;-141.02;100.00;107719.09;5134813;27;20189;-62
2023/07/06 11:41:09;;;;;;;32.17;30.38;;;;;;;-141.02;100.00;107969.53;5134820;27;20245;-60
2023/07/06 11:43:49;;;;;;;32.30;30.50;;;;;;;-141.02;100.00;107971.50;5134729;27;20188;-60
2023/07/06 11:46:29;;;;;;;26.42;25.05;;;;;;;-141.02;100.00;107971.50;5134661;27;20184;-56
2023/07/06 11:49:09;;;;;;;28.13;26.63;;;;;;;-141.02;100.00;107971.50;5134582;27;20642;-57
2023/07/06 11:51:38;;;;;;;34.45;32.55;;;;;;;-141.02;100.00;107971.50;5134115;27;20311;-67
2023/07/06 11:54:07;;;;;;;35.60;33.60;;;;;;;-141.02;100.00;107969.53;5134430;27;20246;-62
2023/07/06 11:56:50;;;;;;;35.47;33.50;;;;;;;-141.02;100.00;107969.53;5134356;27;20248;-66
2023/07/06 11:59:36;;;;;;;34.53;32.70;;;;;;;-141.02;100.00;107971.50;5134102;27;20241;-64
2023/07/06 12:02:15;;;;;;;34.30;32.50;;;;;;;-141.02;100.00;107971.50;5134057;27;20715;-64
2023/07/06 12:04:45;;;;;;;33.05;31.27;;;;;;;-141.02;100.00;107971.50;5134027;27;20669;-64
2023/07/06 12:07:25;;;;;;;31.48;29.88;;;;;;;-141.02;100.00;107971.50;5133862;27;20536;-64
2023/07/06 12:09:53;;;;;;;30.23;28.73;;;;;;;-141.02;100.00;107971.50;5134044;27;20188;-65
2023/07/06 12:12:23;;;;;;;28.58;27.17;;;;;;;-141.02;100.00;107971.50;5134041;27;20256;-64
2023/07/06 12:14:54;;;;;;;23.52;22.42;;;;;;;-141.02;100.00;107971.50;5133758;27;20193;-64
2023/07/06 12:17:22;;;;;;;27.55;26.25;;;;;;;-141.02;100.00;107971.50;5133783;27;20184;-64
2023/07/06 12:19:49;;;;;;;28.27;26.88;;;;;;;-141.02;100.00;107971.50;5133105;27;20229;-62
2023/07/06 12:22:18;;;;;;;27.95;26.65;;;;;;;-141.02;100.00;107971.50;5133973;27;20616;-60
2023/07/06 12:24:45;;;;;;;27.63;26.33;;;;;;;-141.02;100.00;107971.50;5133954;27;20722;-60
2023/07/06 12:27:15;;;;;;;29.13;27.73;;;;;;;-141.02;100.00;107971.50;5133549;27;20196;-59
2023/07/06 12:29:45;;;;;;;27.92;26.52;;;;;;;-141.02;100.00;107971.50;5133629;27;20275;-63
2023/07/06 12:32:15;;;;;;;27.40;26.10;;;;;;;-141.02;100.00;107971.50;5133693;27;20310;-66
2023/07/06 12:34:45;;;;;;;25.15;24.05;;;;;;;-141.02;100.00;107971.50;5133523;27;20745;-59
2023/07/06 12:37:14;;;;;;;25.60;24.40;;;;;;;-141.02;100.00;107971.50;5133414;27;20199;-58
2023/07/06 12:39:44;;;;;;;21.67;20.67;;;;;;;-141.02;100.00;107971.50;5133710;27;20188;-58
2023/07/06 12:42:15;;;;;;;24.60;23.45;;;;;;;-141.02;100.00;107971.50;5133284;27;20230;-57
2023/07/06 12:44:43;;;;;;;25.85;24.55;;;;;;;-141.02;100.00;107971.50;5133322;27;20188;-60
2023/07/06 12:47:24;;;;;;;25.25;24.05;;;;;;;-141.02;100.00;107971.50;5133542;27;20579;-59
2023/07/06 12:49:57;;;;;;;16.30;15.70;;;;;;;-141.02;100.00;107971.50;5133554;27;20194;-62
2023/07/06 12:52:24;;;;;;;22.40;21.40;;;;;;;-141.02;100.00;107971.50;5133419;27;20220;-57
2023/07/06 12:54:53;;;;;;;18.10;17.30;;;;;;;-141.02;100.00;107971.50;5133093;27;20192;-56
2023/07/06 12:57:24;;;;;;;21.75;20.75;;;;;;;-141.02;100.00;107971.50;5133343;27;20200;-56
2023/07/06 12:59:54;;;;;;;18.13;17.33;;;;;;;-141.02;100.00;107971.50;5133352;27;20602;-58
2023/07/06 13:02:24;;;;;;;16.17;15.55;;;;;;;-141.02;100.00;107971.50;5133398;27;20200;-65
2023/07/06 13:04:52;;;;;;;15.27;14.68;;;;;;;-141.02;100.00;107971.50;5133338;27;20271;-58
2023/07/06 13:07:21;;;;;;;15.98;15.27;;;;;;;-141.02;100.00;107971.50;5133087;27;20726;-56
2023/07/06 13:09:50;;;;;;;15.57;14.88;;;;;;;-141.02;100.00;107971.50;5133263;28;20228;-58
2023/07/06 13:12:21;;;;;;;16.20;15.45;;;;;;;-141.02;100.00;107971.50;5132909;28;20228;-56
2023/07/06 13:14:50;;;;;;;16.27;15.57;;;;;;;-141.02;100.00;107971.50;5132916;27;20295;-60